Time;durP1;ratioP1;P1;durP2;ratioP2;P2;SDS_P1;SDS_P2;PMS_P1;PMS_P2;Temp;Humidity;BMP_temperature;BMP_pressure;BME280_temperature;BME280_humidity;BME280_pressure;Samples;Min_cycle;Max_cycle;Signal;HPM_P1;HPM_P2
2022/09/21 00:02:56;;;;;;;2.42;1.83;;;;;;;7.56;100.00;102320.72;6225194;28;20054;-75
2022/09/21 00:06:02;;;;;;;2.30;1.77;;;;;;;7.54;100.00;102319.88;6226190;28;20050;-74
2022/09/21 00:09:04;;;;;;;4.00;1.40;;;;;;;7.49;100.00;102318.19;6226554;28;20426;-75
2022/09/21 00:12:08;;;;;;;3.60;1.50;;;;;;;7.46;100.00;102319.13;6226246;28;20178;-75
2022/09/21 00:15:11;;;;;;;2.33;1.33;;;;;;;7.43;100.00;102318.31;6225842;28;20050;-74
2022/09/21 00:18:12;;;;;;;3.80;1.50;;;;;;;7.42;100.00;102306.97;6226441;28;20054;-75
2022/09/21 00:21:16;;;;;;;2.00;1.27;;;;;;;7.38;100.00;102308.78;6225751;28;20060;-75
2022/09/21 00:24:17;;;;;;;6.60;1.33;;;;;;;7.34;100.00;102321.91;6225792;28;20042;-75
2022/09/21 00:27:20;;;;;;;2.03;1.00;;;;;;;7.35;100.00;102315.78;6226019;28;20107;-75
2022/09/21 00:30:21;;;;;;;4.45;1.23;;;;;;;7.33;100.00;102320.19;6225906;28;20046;-75
2022/09/21 00:33:23;;;;;;;6.40;1.38;;;;;;;7.34;100.00;102327.16;6225670;28;20049;-75
2022/09/21 00:36:26;;;;;;;1.77;1.02;;;;;;;7.30;100.00;102323.72;6225848;28;20053;-75
2022/09/21 00:39:27;;;;;;;5.75;1.30;;;;;;;7.24;100.00;102328.19;6225647;28;20050;-75
2022/09/21 00:42:33;;;;;;;3.35;1.35;;;;;;;7.20;100.00;102329.09;6225290;28;20089;-75
2022/09/21 00:45:35;;;;;;;2.00;0.95;;;;;;;7.18;100.00;102326.53;6225305;28;20061;-75
2022/09/21 00:48:36;;;;;;;3.53;1.48;;;;;;;7.16;100.00;102330.88;6225847;28;20057;-75
2022/09/21 00:51:38;;;;;;;5.38;1.55;;;;;;;7.19;100.00;102328.25;6225078;28;20050;-75
2022/09/21 00:54:43;;;;;;;7.22;2.15;;;;;;;7.17;100.00;102318.66;6225050;28;20053;-74
2022/09/21 00:57:51;;;;;;;1.08;0.98;;;;;;;7.18;100.00;102326.53;6225479;28;20099;-74
2022/09/21 01:00:52;;;;;;;2.25;1.50;;;;;;;7.10;100.00;102326.63;6225122;28;20057;-75
2022/09/21 01:03:56;;;;;;;6.45;1.63;;;;;;;7.05;100.00;102328.44;6224795;28;20509;-75
2022/09/21 01:07:04;;;;;;;2.50;1.58;;;;;;;7.01;100.00;102329.34;6225244;28;20068;-75
2022/09/21 01:10:10;;;;;;;7.43;2.25;;;;;;;7.06;100.00;102337.13;6224918;28;20053;-75
2022/09/21 01:13:26;;;;;;;2.95;1.30;;;;;;;7.07;100.00;102337.09;6224258;28;20220;-75
2022/09/21 01:16:36;;;;;;;3.15;1.42;;;;;;;7.08;100.00;102340.56;6224828;28;20057;-75
2022/09/21 01:20:04;;;;;;;1.85;1.55;;;;;;;7.05;100.00;102332.78;6224675;28;20053;-74
2022/09/21 01:23:19;;;;;;;3.83;1.42;;;;;;;7.02;100.00;102333.69;6224872;28;20042;-74
2022/09/21 01:26:25;;;;;;;2.72;1.73;;;;;;;6.97;100.00;102340.72;6224428;28;20054;-75
2022/09/21 01:29:32;;;;;;;5.00;2.13;;;;;;;6.96;100.00;102335.53;6224684;28;20046;-75
2022/09/21 01:32:38;;;;;;;5.22;2.28;;;;;;;6.98;100.00;102342.44;6224123;28;20061;-75
2022/09/21 01:35:44;;;;;;;6.70;2.30;;;;;;;6.92;100.00;102346.91;6224190;28;20050;-75
2022/09/21 01:38:50;;;;;;;4.28;2.10;;;;;;;6.89;100.00;102353.00;6224703;28;20050;-75
2022/09/21 01:41:53;;;;;;;3.05;1.90;;;;;;;6.90;100.00;102349.50;6224082;28;20054;-75
2022/09/21 01:45:00;;;;;;;2.17;1.55;;;;;;;6.89;100.00;102354.75;6223954;28;20490;-75
2022/09/21 01:48:02;;;;;;;5.70;2.10;;;;;;;6.81;100.00;102350.53;6224361;28;20046;-74
2022/09/21 01:51:07;;;;;;;3.55;2.22;;;;;;;6.81;100.00;102354.84;6223657;28;20085;-75
2022/09/21 01:54:14;;;;;;;3.88;2.28;;;;;;;6.78;100.00;102347.06;6224130;28;20046;-75
2022/09/21 01:57:24;;;;;;;3.88;2.03;;;;;;;6.73;100.00;102357.56;6224356;28;20062;-75
2022/09/21 02:00:28;;;;;;;4.63;2.08;;;;;;;6.67;100.00;102346.31;6223767;28;20052;-75
2022/09/21 02:03:32;;;;;;;3.95;2.03;;;;;;;6.66;100.00;102353.28;6224092;28;20054;-75
2022/09/21 02:06:34;;;;;;;3.78;2.13;;;;;;;6.63;100.00;102357.69;6223616;28;20057;-75
2022/09/21 02:09:37;;;;;;;7.10;2.40;;;;;;;6.65;100.00;102354.19;6223463;28;20105;-75
2022/09/21 02:12:39;;;;;;;3.83;1.73;;;;;;;6.68;100.00;102346.31;6223377;28;20464;-75
2022/09/21 02:15:54;;;;;;;11.10;1.98;;;;;;;6.68;100.00;102355.91;6223074;28;20049;-74
2022/09/21 02:19:09;;;;;;;6.10;2.83;;;;;;;6.64;100.00;102349.84;6223742;28;20421;-75
2022/09/21 02:22:15;;;;;;;6.60;2.10;;;;;;;6.58;100.00;102352.50;6222985;28;20140;-74
2022/09/21 02:25:23;;;;;;;6.68;2.35;;;;;;;6.52;100.00;102357.81;6222114;28;20404;-75
2022/09/21 02:28:33;;;;;;;4.82;2.42;;;;;;;6.56;100.00;102356.88;6223364;28;20065;-75
2022/09/21 02:31:43;;;;;;;18.83;3.33;;;;;;;6.63;100.00;102358.53;6222763;28;20065;-75
2022/09/21 02:34:49;;;;;;;7.57;3.80;;;;;;;6.62;100.00;102354.19;6223114;28;20046;-75
2022/09/21 02:37:55;;;;;;;13.90;3.85;;;;;;;6.61;100.00;102358.56;6223186;28;20061;-75
2022/09/21 02:41:07;;;;;;;9.20;2.95;;;;;;;6.63;100.00;102360.28;6222787;28;20058;-75
2022/09/21 02:44:13;;;;;;;14.63;3.10;;;;;;;6.65;100.00;102355.94;6222189;28;20053;-75
2022/09/21 02:47:20;;;;;;;6.20;3.13;;;;;;;6.65;100.00;102356.78;6215942;28;20053;-75
2022/09/21 02:50:26;;;;;;;10.23;3.13;;;;;;;6.61;100.00;102355.09;6198351;28;20050;-75
2022/09/21 02:53:30;;;;;;;10.57;2.88;;;;;;;6.60;100.00;102367.28;6198331;28;20520;-75
2022/09/21 02:56:32;;;;;;;6.03;3.15;;;;;;;6.60;100.00;102351.63;6213897;28;20527;-75
2022/09/21 02:59:33;;;;;;;9.13;3.17;;;;;;;6.55;100.00;102349.94;6222402;28;20050;-75
2022/09/21 03:02:38;;;;;;;6.72;3.00;;;;;;;6.54;100.00;102358.63;6222020;28;20540;-75
2022/09/21 03:05:40;;;;;;;11.00;2.78;;;;;;;6.47;100.00;102362.22;6221965;28;20052;-74
2022/09/21 03:08:41;;;;;;;6.97;2.55;;;;;;;6.45;100.00;102357.00;6222663;28;20054;-75
2022/09/21 03:11:42;;;;;;;5.07;2.58;;;;;;;6.45;100.00;102363.94;6222178;28;20053;-75
2022/09/21 03:14:44;;;;;;;5.82;2.28;;;;;;;6.43;100.00;102365.72;6222060;28;20101;-75
2022/09/21 03:17:46;;;;;;;4.47;2.28;;;;;;;6.44;100.00;102359.63;6222370;28;20719;-75
2022/09/21 03:20:47;;;;;;;7.30;2.30;;;;;;;6.33;100.00;102362.34;6222174;28;20057;-75
2022/09/21 03:23:49;;;;;;;4.30;2.22;;;;;;;6.29;100.00;102366.72;6221773;28;20057;-75
2022/09/21 03:26:51;;;;;;;6.25;2.13;;;;;;;6.26;100.00;102353.69;6222181;28;20418;-75
2022/09/21 03:29:52;;;;;;;3.80;2.08;;;;;;;6.24;100.00;102370.28;6221872;28;20061;-75
2022/09/21 03:32:55;;;;;;;3.00;2.00;;;;;;;6.19;100.00;102372.91;6221973;28;20049;-76
2022/09/21 03:35:56;;;;;;;3.05;1.85;;;;;;;6.16;100.00;102361.63;6222474;28;20049;-75
2022/09/21 03:38:58;;;;;;;4.63;2.03;;;;;;;6.18;100.00;102367.72;6230187;28;20107;-75
2022/09/21 03:41:59;;;;;;;4.18;1.95;;;;;;;6.14;100.00;102373.84;6230005;28;20057;-75
2022/09/21 03:45:01;;;;;;;4.32;1.88;;;;;;;6.15;100.00;102375.56;6229661;28;20183;-75
2022/09/21 03:48:04;;;;;;;5.30;1.77;;;;;;;6.15;100.00;102378.19;6230190;28;20184;-75
2022/09/21 03:51:05;;;;;;;5.45;2.05;;;;;;;6.09;100.00;102384.34;6229752;28;20054;-75
2022/09/21 03:54:06;;;;;;;8.73;2.30;;;;;;;6.06;100.00;102379.13;6229806;28;20050;-75
2022/09/21 03:57:08;;;;;;;4.60;1.83;;;;;;;6.06;100.00;102376.50;6230130;28;20053;-75
2022/09/21 04:00:10;;;;;;;7.55;2.25;;;;;;;6.06;100.00;102385.19;6229571;28;20160;-75
2022/09/21 04:03:13;;;;;;;6.47;2.25;;;;;;;6.04;100.00;102389.59;6230063;28;20129;-75
2022/09/21 04:06:14;;;;;;;5.85;2.08;;;;;;;5.99;100.00;102388.72;6229415;28;20057;-75
2022/09/21 04:09:16;;;;;;;3.97;2.30;;;;;;;5.99;100.00;102386.13;6230165;28;20053;-75
2022/09/21 04:12:21;;;;;;;9.02;2.30;;;;;;;5.98;100.00;102381.78;6229416;28;20567;-75
2022/09/21 04:15:23;;;;;;;4.25;1.90;;;;;;;5.90;100.00;102382.69;6229694;28;20261;-75
2022/09/21 04:18:25;;;;;;;4.57;2.55;;;;;;;5.90;100.00;102380.94;6229882;28;20054;-75
2022/09/21 04:21:27;;;;;;;6.10;2.22;;;;;;;5.92;100.00;102381.84;6229203;28;20054;-75
2022/09/21 04:24:29;;;;;;;8.75;2.72;;;;;;;5.93;100.00;102382.72;6229345;28;20041;-76
2022/09/21 04:27:31;;;;;;;5.88;2.47;;;;;;;5.87;100.00;102383.59;6229572;28;20136;-75
2022/09/21 04:30:33;;;;;;;4.57;2.05;;;;;;;5.90;100.00;102380.06;6229458;28;20452;-75
2022/09/21 04:33:36;;;;;;;7.57;2.03;;;;;;;5.89;100.00;102379.22;6229470;28;20048;-75
2022/09/21 04:36:37;;;;;;;6.65;2.40;;;;;;;5.87;100.00;102385.34;6228651;28;20053;-74
2022/09/21 04:39:39;;;;;;;5.55;2.40;;;;;;;5.82;100.00;102382.75;6225876;28;20046;-75
2022/09/21 04:42:40;;;;;;;5.60;2.45;;;;;;;5.80;100.00;102387.13;6227363;28;20046;-75
2022/09/21 04:45:41;;;;;;;4.28;1.85;;;;;;;5.77;100.00;102388.00;6227388;28;20038;-75
2022/09/21 04:48:45;;;;;;;7.50;2.70;;;;;;;5.74;100.00;102388.03;6224993;28;20045;-74
2022/09/21 04:51:46;;;;;;;6.88;2.17;;;;;;;5.74;100.00;102389.78;6221066;28;20050;-75
2022/09/21 04:54:47;;;;;;;5.82;2.35;;;;;;;5.70;100.00;102388.06;6223856;28;20041;-75
2022/09/21 04:57:49;;;;;;;5.72;2.85;;;;;;;5.66;100.00;102391.56;6223920;28;20045;-75
2022/09/21 05:00:50;;;;;;;3.70;2.00;;;;;;;5.64;100.00;102402.00;6223402;28;20053;-76
2022/09/21 05:03:53;;;;;;;7.85;2.78;;;;;;;5.59;100.00;102399.44;6224658;28;20429;-75
2022/09/21 05:06:56;;;;;;;6.20;2.53;;;;;;;5.56;100.00;102404.66;6225148;28;20050;-75
2022/09/21 05:10:03;;;;;;;3.80;2.28;;;;;;;5.52;100.00;102394.25;6225165;28;20061;-74
2022/09/21 05:13:04;;;;;;;3.90;1.88;;;;;;;5.54;100.00;102413.34;6223893;28;20054;-75
2022/09/21 05:16:06;;;;;;;3.78;2.13;;;;;;;5.53;100.00;102409.00;6223345;28;20049;-75
2022/09/21 05:19:08;;;;;;;4.72;2.10;;;;;;;5.48;100.00;102408.19;6223428;28;20504;-75
2022/09/21 05:22:10;;;;;;;2.67;1.80;;;;;;;5.49;100.00;102418.59;6223115;28;20057;-75
2022/09/21 05:25:11;;;;;;;5.28;2.40;;;;;;;5.47;100.00;102414.28;6223992;28;20053;-75
2022/09/21 05:28:13;;;;;;;4.03;2.10;;;;;;;5.45;100.00;102426.44;6224998;28;20060;-74
2022/09/21 05:31:30;;;;;;;4.43;2.25;;;;;;;5.42;100.00;102419.50;6224291;28;20800;-75
2022/09/21 05:34:42;;;;;;;2.75;1.92;;;;;;;5.50;100.00;102428.16;6224330;28;20046;-75
2022/09/21 05:37:54;;;;;;;5.00;2.25;;;;;;;5.47;100.00;102425.56;6224570;28;20057;-75
2022/09/21 05:40:56;;;;;;;3.38;1.90;;;;;;;5.51;100.00;102423.81;6223837;28;20061;-75
2022/09/21 05:43:58;;;;;;;3.95;1.98;;;;;;;5.50;100.00;102433.38;6223777;28;20042;-75
2022/09/21 05:47:04;;;;;;;2.80;1.73;;;;;;;5.50;100.00;102432.53;6224699;28;20057;-74
2022/09/21 05:50:24;;;;;;;3.42;1.52;;;;;;;5.51;100.00;102429.03;6224087;28;20053;-75
2022/09/21 05:53:42;;;;;;;2.60;1.83;;;;;;;5.49;100.00;102434.22;6224543;28;20056;-75
2022/09/21 05:56:48;;;;;;;4.43;2.00;;;;;;;5.52;100.00;102431.63;6224263;28;20053;-75
2022/09/21 06:00:00;;;;;;;4.32;1.90;;;;;;;5.53;100.00;102433.34;6223844;28;20086;-75
2022/09/21 06:03:23;;;;;;;7.07;3.25;;;;;;;5.53;100.00;102435.09;6224066;28;20058;-75
2022/09/21 06:06:26;;;;;;;6.28;2.70;;;;;;;5.59;100.00;102442.91;6223910;28;20046;-81
2022/09/21 06:09:27;;;;;;;4.95;2.85;;;;;;;5.63;100.00;102448.94;6223944;28;20068;-75
2022/09/21 06:12:28;;;;;;;3.45;2.03;;;;;;;5.68;100.00;102442.84;6223664;28;20053;-75
2022/09/21 06:15:30;;;;;;;7.43;3.25;;;;;;;5.72;100.00;102441.97;6223477;28;20049;-75
2022/09/21 06:18:31;;;;;;;10.70;4.00;;;;;;;5.66;100.00;102448.94;6223397;28;20050;-75
2022/09/21 06:21:34;;;;;;;4.15;2.63;;;;;;;5.69;100.00;102455.00;6222966;28;20049;-75
2022/09/21 06:24:35;;;;;;;7.15;3.33;;;;;;;5.73;100.00;102458.47;6223034;28;20052;-75
2022/09/21 06:27:36;;;;;;;6.63;3.45;;;;;;;5.76;100.00;102451.47;6223615;28;20057;-75
2022/09/21 06:30:40;;;;;;;10.25;3.85;;;;;;;5.84;100.00;102456.66;6222826;28;20045;-75
2022/09/21 06:33:42;;;;;;;5.57;2.42;;;;;;;5.87;100.00;102450.56;6222620;28;20387;-75
2022/09/21 06:36:45;;;;;;;6.07;2.97;;;;;;;5.89;100.00;102451.41;6223237;28;20054;-75
2022/09/21 06:39:46;;;;;;;2.78;1.85;;;;;;;5.92;100.00;102443.59;6222756;28;20437;-75
2022/09/21 06:42:47;;;;;;;6.40;2.53;;;;;;;5.91;100.00;102450.53;6222764;28;20056;-75
2022/09/21 06:45:54;;;;;;;2.55;1.92;;;;;;;5.98;100.00;102448.78;6221885;28;20046;-75
2022/09/21 06:48:55;;;;;;;4.00;2.10;;;;;;;6.09;100.00;102452.19;6221359;28;20413;-75
2022/09/21 06:51:58;;;;;;;4.78;3.13;;;;;;;6.15;100.00;102446.91;6221017;28;20050;-75
2022/09/21 06:55:00;;;;;;;4.72;2.63;;;;;;;6.21;100.00;102449.47;6220989;28;20619;-75
2022/09/21 06:58:01;;;;;;;4.60;2.67;;;;;;;6.29;100.00;102450.28;6221248;28;20049;-75
2022/09/21 07:01:07;;;;;;;4.45;2.45;;;;;;;6.36;100.00;102451.09;6220677;28;20757;-75
2022/09/21 07:04:08;;;;;;;6.78;2.33;;;;;;;6.43;100.00;102458.00;6218331;28;20412;-75
2022/09/21 07:07:11;;;;;;;3.80;2.70;;;;;;;6.51;100.00;102458.78;6221022;28;20045;-75
2022/09/21 07:10:12;;;;;;;4.45;2.60;;;;;;;6.57;100.00;102463.94;6220854;28;20050;-75
2022/09/21 07:13:15;;;;;;;4.95;3.25;;;;;;;6.65;100.00;102463.88;6220343;28;20057;-75
2022/09/21 07:16:17;;;;;;;6.28;3.38;;;;;;;6.68;100.00;102463.88;6220445;28;20049;-75
2022/09/21 07:19:18;;;;;;;5.55;2.97;;;;;;;6.76;100.00;102469.00;6221137;28;20064;-75
2022/09/21 07:22:21;;;;;;;5.70;3.30;;;;;;;6.82;100.00;102472.44;6221162;28;20488;-75
2022/09/21 07:25:22;;;;;;;11.25;3.38;;;;;;;6.87;100.00;102469.78;6221980;28;20053;-75
2022/09/21 07:28:23;;;;;;;4.93;3.40;;;;;;;6.91;100.00;102470.63;6222505;28;20065;-75
2022/09/21 07:31:25;;;;;;;8.85;4.32;;;;;;;6.92;100.00;102465.38;6221839;28;20085;-75
2022/09/21 07:34:26;;;;;;;7.55;3.25;;;;;;;7.01;100.00;102470.50;6222136;28;20072;-75
2022/09/21 07:37:31;;;;;;;6.35;3.40;;;;;;;7.07;100.00;102470.41;6222577;28;20054;-75
2022/09/21 07:40:34;;;;;;;6.10;3.53;;;;;;;7.15;100.00;102472.09;6221868;28;20421;-75
2022/09/21 07:43:38;;;;;;;5.93;3.10;;;;;;;7.20;100.00;102475.53;6221988;28;20425;-75
2022/09/21 07:46:39;;;;;;;5.88;3.22;;;;;;;7.27;100.00;102483.28;6222025;28;20042;-75
2022/09/21 07:49:41;;;;;;;5.28;3.05;;;;;;;7.36;100.00;102474.47;6221824;28;20053;-75
2022/09/21 07:52:44;;;;;;;9.50;4.43;;;;;;;7.42;100.00;102474.38;6222019;28;20054;-75
2022/09/21 07:55:45;;;;;;;6.53;3.42;;;;;;;7.48;100.00;102476.03;6221573;28;20513;-75
2022/09/21 08:02:05;;;;;;;5.87;3.47;;;;;;;7.63;100.00;102481.97;6221610;28;20049;-75
2022/09/21 08:05:07;;;;;;;4.18;3.10;;;;;;;7.71;100.00;102484.44;6221578;28;20042;-75
2022/09/21 08:08:09;;;;;;;6.45;3.70;;;;;;;7.79;100.00;102481.75;6221862;28;20046;-77
2022/09/21 08:11:11;;;;;;;6.38;3.92;;;;;;;7.86;100.00;102486.03;6221737;28;20050;-76
2022/09/21 08:14:18;;;;;;;4.78;3.60;;;;;;;7.94;100.00;102486.75;6221417;28;20049;-75
2022/09/21 08:17:19;;;;;;;5.53;4.10;;;;;;;8.01;100.00;102487.53;6221935;28;20425;-76
2022/09/21 08:20:21;;;;;;;5.95;3.35;;;;;;;8.07;100.00;102492.69;6221507;28;20049;-75
2022/09/21 08:23:25;;;;;;;5.97;3.53;;;;;;;8.12;100.00;102491.72;6222641;28;20046;-76
2022/09/21 08:26:26;;;;;;;5.28;3.38;;;;;;;8.20;100.00;102489.00;6225785;28;20072;-75
2022/09/21 08:29:27;;;;;;;8.80;4.32;;;;;;;8.30;100.00;102494.94;6226234;28;20061;-76
2022/09/21 08:32:29;;;;;;;19.60;7.72;;;;;;;8.36;100.00;102493.16;6225753;28;20057;-76
2022/09/21 08:35:31;;;;;;;7.57;4.68;;;;;;;8.43;100.00;102485.16;6225605;28;20049;-75
2022/09/21 08:38:35;;;;;;;9.32;4.00;;;;;;;8.50;100.00;102485.06;6226186;28;20063;-75
2022/09/21 08:41:56;;;;;;;7.32;4.72;;;;;;;8.61;100.00;102488.34;6225278;28;20046;-75
2022/09/21 08:45:04;;;;;;;8.30;4.63;;;;;;;8.74;100.00;102488.13;6225367;28;20053;-75
2022/09/21 08:48:13;;;;;;;9.73;4.60;;;;;;;8.79;100.00;102486.28;6225913;28;20485;-76
2022/09/21 08:51:21;;;;;;;7.55;4.85;;;;;;;8.87;100.00;102480.03;6225383;28;20053;-75
2022/09/21 08:54:29;;;;;;;6.53;4.28;;;;;;;8.99;100.00;102478.91;6225422;28;20058;-75
2022/09/21 08:57:33;;;;;;;10.70;5.05;;;;;;;9.03;100.00;102485.84;6224808;28;20049;-76
2022/09/21 09:00:41;;;;;;;15.07;4.90;;;;;;;9.12;100.00;102488.28;6224859;28;20053;-75
2022/09/21 09:04:00;;;;;;;11.07;4.72;;;;;;;9.26;100.00;102488.00;6222090;28;20464;-76
2022/09/21 09:07:15;;;;;;;7.15;4.38;;;;;;;9.35;100.00;102487.81;6219233;28;20038;-75
2022/09/21 09:10:34;;;;;;;7.47;3.60;;;;;;;9.48;100.00;102485.81;6224326;28;20060;-75
2022/09/21 09:13:52;;;;;;;5.97;3.28;;;;;;;9.61;100.00;102487.28;6200846;28;20053;-76
2022/09/21 09:17:10;;;;;;;7.90;3.03;;;;;;;9.72;100.00;102492.31;6219664;28;20045;-75
2022/09/21 09:20:15;;;;;;;3.38;1.90;;;;;;;9.85;100.00;102491.13;6223793;28;20436;-75
2022/09/21 09:23:22;;;;;;;4.10;1.85;;;;;;;10.06;100.00;102487.16;6223665;28;20064;-75
2022/09/21 09:26:32;;;;;;;2.88;1.73;;;;;;;10.11;100.00;102490.53;6224316;28;20053;-74
2022/09/21 09:29:40;;;;;;;3.83;1.70;;;;;;;10.20;100.00;102492.09;6224688;28;20398;-74
2022/09/21 09:32:49;;;;;;;5.75;1.83;;;;;;;10.34;100.00;102482.16;6211764;28;20053;-74
2022/09/21 09:35:55;;;;;;;4.00;1.65;;;;;;;10.49;100.00;102485.28;6223146;28;20046;-73
2022/09/21 09:39:00;;;;;;;3.15;1.15;;;;;;;10.47;100.00;102482.72;6224524;28;20077;-74
2022/09/21 09:42:41;;;;;;;4.28;1.50;;;;;;;10.67;100.00;102484.81;6213665;28;20057;-73
2022/09/21 09:45:55;;;;;;;6.35;1.00;;;;;;;10.71;100.00;102485.63;6216259;28;20065;-73
2022/09/21 09:49:17;;;;;;;5.25;0.80;;;;;;;10.80;100.00;102485.38;6224933;28;20057;-75
2022/09/21 09:52:18;;;;;;;3.90;0.93;;;;;;;11.02;100.00;102481.25;6224091;28;20057;-75
2022/09/21 09:55:23;;;;;;;1.25;0.70;;;;;;;11.03;99.47;102482.97;6223219;28;20041;-74
2022/09/21 09:58:35;;;;;;;8.15;0.80;;;;;;;11.01;100.00;102483.94;6223821;28;20061;-75
2022/09/21 10:01:42;;;;;;;3.78;0.73;;;;;;;11.14;96.10;102486.19;6223899;28;20126;-75
2022/09/21 10:04:57;;;;;;;5.50;1.52;;;;;;;11.18;99.22;102489.63;6220872;28;20052;-73
2022/09/21 10:07:58;;;;;;;2.05;0.57;;;;;;;11.27;99.11;102485.88;6219287;28;20046;-75
2022/09/21 10:11:00;;;;;;;1.67;0.65;;;;;;;11.38;98.59;102483.78;6221520;28;20053;-74
2022/09/21 10:14:10;;;;;;;2.88;0.60;;;;;;;11.42;100.00;102475.75;6222010;28;20049;-74
2022/09/21 10:17:16;;;;;;;2.35;1.17;;;;;;;11.51;97.06;102485.16;6222383;28;20647;-75
2022/09/21 10:20:19;;;;;;;2.20;0.47;;;;;;;11.48;98.22;102479.97;6222549;28;20057;-74
2022/09/21 10:23:20;;;;;;;3.65;0.80;;;;;;;11.48;98.82;102477.31;6223212;28;20394;-74
2022/09/21 10:26:22;;;;;;;3.50;1.08;;;;;;;11.73;99.66;102479.25;6222731;28;20473;-74
2022/09/21 10:29:38;;;;;;;1.85;0.60;;;;;;;11.80;98.63;102478.13;6222985;28;20452;-75
2022/09/21 10:32:55;;;;;;;3.28;0.82;;;;;;;11.82;96.75;102481.59;6285053;22;20413;-73
2022/09/21 10:35:57;;;;;;;3.42;0.90;;;;;;;11.87;98.07;102475.31;6244437;28;20057;-72
2022/09/21 10:39:20;;;;;;;2.28;0.80;;;;;;;12.05;97.90;102473.00;6247467;28;20045;-73
2022/09/21 10:42:22;;;;;;;3.40;0.95;;;;;;;12.12;94.72;102466.63;6233811;28;20046;-73
2022/09/21 10:45:27;;;;;;;0.80;0.63;;;;;;;12.17;96.36;102462.06;6222411;28;20050;-73
2022/09/21 10:48:29;;;;;;;2.53;1.05;;;;;;;12.22;95.38;102469.81;6222698;28;20045;-73
2022/09/21 10:51:33;;;;;;;3.05;1.02;;;;;;;12.33;92.13;102462.44;6220946;28;20532;-73
2022/09/21 10:54:35;;;;;;;3.08;1.05;;;;;;;12.40;92.80;102462.19;6245935;28;20717;-73
2022/09/21 10:57:41;;;;;;;3.65;1.13;;;;;;;12.50;89.66;102454.81;6247005;28;20045;-73
2022/09/21 11:00:47;;;;;;;4.43;0.45;;;;;;;12.62;85.04;102454.38;6247014;28;20398;-73
2022/09/21 11:03:53;;;;;;;4.68;0.90;;;;;;;12.83;81.93;102458.06;6246459;28;20050;-73
2022/09/21 11:07:00;;;;;;;1.20;0.68;;;;;;;13.12;75.55;102453.50;6247186;28;20048;-73
2022/09/21 11:10:11;;;;;;;1.83;0.60;;;;;;;13.21;77.60;102459.28;6246612;28;20054;-72
2022/09/21 11:13:28;;;;;;;1.17;0.43;;;;;;;13.32;78.49;102453.66;6247299;28;20053;-73
2022/09/21 11:16:36;;;;;;;3.90;0.50;;;;;;;13.37;80.36;102457.00;6228499;28;20049;-73
2022/09/21 11:19:41;;;;;;;1.75;0.50;;;;;;;13.53;79.01;102451.97;6222337;28;20041;-73
2022/09/21 11:22:55;;;;;;;1.00;0.47;;;;;;;13.77;74.74;102446.69;6222392;28;20050;-73
2022/09/21 11:26:04;;;;;;;2.63;0.52;;;;;;;14.00;78.34;102445.75;6223357;28;20405;-73
2022/09/21 11:29:12;;;;;;;3.40;0.28;;;;;;;14.31;71.08;102450.66;6246643;28;20405;-73
2022/09/21 11:32:30;;;;;;;0.75;0.22;;;;;;;14.04;72.54;102447.38;6246176;28;20060;-73
2022/09/21 11:35:57;;;;;;;2.17;0.70;;;;;;;14.05;70.57;102444.66;6246555;28;20053;-73
2022/09/21 11:39:09;;;;;;;0.95;0.60;;;;;;;14.36;70.43;102446.03;6246530;28;20068;-72
2022/09/21 11:42:25;;;;;;;1.65;0.35;;;;;;;14.54;70.54;102444.44;6246270;28;20046;-70
2022/09/21 11:45:46;;;;;;;2.92;0.80;;;;;;;14.74;65.84;102430.31;6246039;28;20053;-70
2022/09/21 11:49:02;;;;;;;1.60;0.55;;;;;;;14.80;65.69;102436.19;6246548;28;20053;-70
2022/09/21 11:52:20;;;;;;;1.95;1.00;;;;;;;14.68;65.56;102429.66;6246362;28;20049;-71
2022/09/21 11:55:47;;;;;;;2.20;0.77;;;;;;;14.85;63.16;102439.53;6245708;28;20056;-71
2022/09/21 11:58:57;;;;;;;0.57;0.40;;;;;;;15.09;66.50;102434.06;6248874;28;20449;-72
2022/09/21 12:02:20;;;;;;;0.95;0.25;;;;;;;15.28;62.51;102424.34;6247184;28;20045;-71
2022/09/21 12:05:30;;;;;;;3.10;0.70;;;;;;;15.60;65.48;102422.81;6250617;28;20049;-72
2022/09/21 12:08:50;;;;;;;1.80;0.40;;;;;;;15.66;60.20;102419.91;6251212;28;20417;-71
2022/09/21 12:12:03;;;;;;;0.20;0.20;;;;;;;15.73;60.13;102413.38;6250487;28;20053;-72
2022/09/21 12:15:13;;;;;;;0.70;0.32;;;;;;;15.64;59.77;102416.47;6250837;28;20042;-72
2022/09/21 12:18:22;;;;;;;0.52;0.38;;;;;;;15.42;62.27;102421.91;6249935;28;20053;-71
2022/09/21 12:21:28;;;;;;;1.67;0.50;;;;;;;15.24;68.39;102417.47;6250666;28;20057;-72
2022/09/21 12:24:33;;;;;;;2.33;0.50;;;;;;;14.92;64.17;102417.13;6249989;28;20497;-70
2022/09/21 12:27:39;;;;;;;1.30;0.28;;;;;;;14.80;63.01;102416.81;6250496;28;20406;-71
2022/09/21 12:30:44;;;;;;;0.98;0.30;;;;;;;15.32;63.77;102417.09;6242008;28;20056;-71
2022/09/21 12:33:50;;;;;;;2.30;1.20;;;;;;;15.78;61.03;102409.66;6249965;28;20053;-71
2022/09/21 12:37:04;;;;;;;2.38;0.95;;;;;;;16.09;62.87;102409.00;6250557;28;20052;-72
2022/09/21 12:40:26;;;;;;;6.15;0.32;;;;;;;16.48;64.21;102411.41;6249957;28;20421;-72
2022/09/21 12:43:33;;;;;;;1.85;0.40;;;;;;;16.76;61.91;102407.34;6249911;28;20064;-74
2022/09/21 12:46:41;;;;;;;0.75;0.38;;;;;;;16.77;55.79;102399.31;6249858;28;20056;-74
2022/09/21 12:49:46;;;;;;;2.60;0.60;;;;;;;16.48;57.75;102398.16;6250050;28;20052;-74
2022/09/21 12:52:51;;;;;;;2.22;0.47;;;;;;;16.59;63.24;102394.94;6250068;28;20060;-75
2022/09/21 12:55:59;;;;;;;2.88;0.60;;;;;;;16.71;63.01;102389.88;6249688;28;20041;-74
2022/09/21 12:59:21;;;;;;;1.15;0.20;;;;;;;17.04;62.11;102389.03;6250013;28;20053;-74
2022/09/21 13:02:33;;;;;;;1.05;0.60;;;;;;;17.25;58.43;102387.81;6249464;28;20056;-72
2022/09/21 13:05:38;;;;;;;0.57;0.30;;;;;;;17.44;62.14;102386.78;6249167;28;20076;-75
2022/09/21 13:08:45;;;;;;;0.80;0.35;;;;;;;17.49;58.49;102376.78;6249062;28;20056;-75
2022/09/21 13:11:53;;;;;;;1.20;0.43;;;;;;;17.45;54.10;102375.25;6249285;28;20056;-75
2022/09/21 13:15:02;;;;;;;1.83;0.50;;;;;;;17.38;55.45;102376.53;6249014;28;20128;-75
2022/09/21 13:18:05;;;;;;;;;;;;;;;17.65;57.61;102371.44;6250283;28;20045;-73
2022/09/21 13:21:18;;;;;;;6.45;0.70;;;;;;;17.82;57.71;102373.19;6249012;28;19920;-75
2022/09/21 13:24:27;;;;;;;1.85;0.60;;;;;;;17.97;55.64;102365.16;6248978;28;20053;-76
2022/09/21 13:27:59;;;;;;;3.33;0.70;;;;;;;18.28;59.16;102365.16;6249005;28;20050;-75
2022/09/21 13:31:35;;;;;;;1.15;0.20;;;;;;;18.59;56.48;102374.81;6224407;28;20050;-73
2022/09/21 13:34:38;;;;;;;26.88;4.07;;;;;;;18.23;54.07;102362.75;6213897;28;20057;-73
2022/09/21 13:37:39;;;;;;;0.98;0.50;;;;;;;17.68;57.98;102369.47;6224197;28;20449;-73
2022/09/21 13:40:57;;;;;;;0.60;0.38;;;;;;;17.46;60.67;102366.31;6224291;28;20057;-74
2022/09/21 13:44:04;;;;;;;4.18;1.20;;;;;;;17.82;60.89;102362.53;6238018;28;20049;-75
2022/09/21 13:47:07;;;;;;;0.93;0.50;;;;;;;18.09;50.89;102352.09;6248875;28;20046;-75
2022/09/21 13:50:17;;;;;;;0.40;0.40;;;;;;;18.23;55.08;102355.63;6247960;28;20045;-75
2022/09/21 13:53:22;;;;;;;0.28;0.20;;;;;;;18.29;51.20;102350.88;6248548;28;20146;-75
2022/09/21 13:56:26;;;;;;;3.45;0.45;;;;;;;18.40;53.23;102356.44;6246206;28;20091;-75
2022/09/21 13:59:28;;;;;;;0.93;0.40;;;;;;;18.03;50.46;102347.09;6248598;28;20509;-73
2022/09/21 14:02:33;;;;;;;1.05;0.50;;;;;;;18.40;51.20;102348.44;6248109;28;20053;-75
2022/09/21 14:05:41;;;;;;;1.45;0.50;;;;;;;18.71;53.32;102342.97;6247879;28;20053;-73
2022/09/21 14:08:49;;;;;;;1.42;0.30;;;;;;;18.84;51.96;102337.72;6247366;28;20053;-73
2022/09/21 14:11:57;;;;;;;3.08;0.47;;;;;;;19.11;48.36;102335.13;6247704;28;20511;-73
2022/09/21 14:15:27;;;;;;;3.03;0.35;;;;;;;19.19;48.55;102329.31;6247999;28;20057;-73
2022/09/21 14:18:37;;;;;;;0.93;0.40;;;;;;;18.95;50.62;102329.91;6246764;28;20048;-75
2022/09/21 14:21:39;;;;;;;1.98;0.60;;;;;;;18.58;47.51;102328.69;6247471;28;20053;-74
2022/09/21 14:24:42;;;;;;;0.30;0.30;;;;;;;18.65;46.70;102326.47;6247724;28;20049;-75
2022/09/21 14:27:46;;;;;;;1.20;0.35;;;;;;;18.73;47.34;102327.75;6247078;28;20045;-74
2022/09/21 14:30:57;;;;;;;2.40;0.50;;;;;;;18.03;44.51;102323.16;6241674;28;20053;-73